Airfield :
LOGIN :

Register | Disclaimer

   EN    FR    IT 

 










Legend :    VFR   Marginal VFR   IFR   Intensive IFR   Very Intensive IFR
Visi :
Ceiling :
>= 8 km
>= 3000ft
5 to 8 km
1000 to 3000 ft
1500m to 5 km
500 to 1000 ft
800 to 1500m
200 to 500 ft
< 800m
< 200 ft
Symbols :   Thunderstorms  Fog  Heavy snow  Heavy precipitations  Wind > 20 kt
SIGMETs :     Misc.  Thunderstorms  Icing  Turbulence  Mountain Waves  Volcanic Ashes






- Airport Elevation : 17 ft
- IATA code : GRS


LIRS - Grosseto

CURRENT METAR :
  • 012255Z 32002KT CAVOK 22/20 Q1015 RMK SKC VIS MIN 9999 WIND THR03 34002KT 310V030 WIND THR21 36004KT BLU

EXPIRED METARs :
  • 012155Z VRB02KT CAVOK 23/22 Q1015 RMK SKC VIS MIN 9999 WIND THR03 10004KT WIND THR21 10003KT BLU
  • 011555Z 25010KT CAVOK 29/23 Q1013 RMK SKC VIS MIN 9999 WIND THR03 24010KT WIND THR21 24012KT BLU
  • 012055Z 12002KT CAVOK 24/23 Q1015
  • 011955Z 20006KT CAVOK 25/24 Q1014 RMK SKC VIS MIN 9999 WIND THR03 21005KT WIND THR21 20005KT RED

TAF TAF LIRS
Valid from the 01 at 21:00 until the 02 at 06:00 UTC


012000Z 0121/0206 34005KT CAVOK



MET'MAP, your aeronautical weather chart ! - Copyright ORBIFLY December 2007 - Disclaimer

ORBIFLY MET'MAP TEAM :

Programming & Development : Alexandra Zaïnal
Original concept : Baudouin d'Aumeries
Technical & hardware support : Manuel Goepfert
Assistance : Marc-Olivier Méhu




SOURCES & CREDITS :

   NOAA